createdAt,value
2018-08-02T00:00:42.007Z,27.50
2018-08-02T00:03:08.836Z,27.50
2018-08-02T00:05:35.658Z,27.50
2018-08-02T00:08:02.572Z,27.50
2018-08-02T00:10:29.414Z,27.40
2018-08-02T00:12:56.250Z,27.50
2018-08-02T00:15:23.063Z,27.50
2018-08-02T00:17:50.088Z,27.50
2018-08-02T00:20:17.961Z,27.40
2018-08-02T00:22:44.853Z,27.40
2018-08-02T00:25:11.761Z,27.40
2018-08-02T00:27:38.777Z,27.40
2018-08-02T00:30:05.707Z,27.40
2018-08-02T00:32:32.691Z,27.40
2018-08-02T00:35:48.138Z,27.40
2018-08-02T00:38:16.756Z,27.40
2018-08-02T00:40:43.728Z,27.40
2018-08-02T00:43:10.536Z,27.40
2018-08-02T00:48:12.839Z,27.40
2018-08-02T00:50:39.911Z,27.40
2018-08-02T00:53:06.886Z,27.40
2018-08-02T00:55:33.940Z,27.40
2018-08-02T00:58:03.464Z,27.40
2018-08-02T01:00:30.381Z,27.40
2018-08-02T01:02:57.247Z,27.40
2018-08-02T01:05:24.384Z,27.40
2018-08-02T01:07:51.429Z,27.30
2018-08-02T01:10:18.441Z,27.40
2018-08-02T01:12:45.476Z,27.40
2018-08-02T01:15:12.640Z,27.40
2018-08-02T01:17:39.813Z,27.40
2018-08-02T01:20:06.751Z,27.40
2018-08-02T01:22:33.820Z,27.40
2018-08-02T01:25:00.817Z,27.40
2018-08-02T01:27:27.813Z,27.40
2018-08-02T01:29:54.823Z,27.40
2018-08-02T01:34:55.261Z,27.40
2018-08-02T01:37:22.321Z,27.40
2018-08-02T01:39:49.611Z,27.40
2018-08-02T01:42:16.585Z,27.40
2018-08-02T01:44:49.760Z,27.30
2018-08-02T01:47:16.788Z,27.40
2018-08-02T01:49:43.618Z,27.40
2018-08-02T01:52:10.482Z,27.40
2018-08-02T01:54:37.311Z,27.40
2018-08-02T01:57:04.351Z,27.40
2018-08-02T01:59:31.168Z,27.30
2018-08-02T02:01:57.990Z,27.30
2018-08-02T02:04:24.813Z,27.30
2018-08-02T02:06:51.682Z,27.30
2018-08-02T02:09:18.508Z,27.30
2018-08-02T02:11:45.327Z,27.30
2018-08-02T02:14:12.150Z,27.30
2018-08-02T02:16:38.976Z,27.30
2018-08-02T02:19:05.819Z,27.30
2018-08-02T02:21:32.641Z,27.30
2018-08-02T02:23:59.474Z,27.30
2018-08-02T02:26:26.305Z,27.30
2018-08-02T02:28:53.305Z,27.30
2018-08-02T02:31:20.137Z,27.30
2018-08-02T02:33:46.936Z,27.30
2018-08-02T02:36:13.776Z,27.30
2018-08-02T02:38:40.662Z,27.30
2018-08-02T02:41:07.525Z,27.30
2018-08-02T02:43:34.353Z,27.30
2018-08-02T02:46:01.180Z,27.30
2018-08-02T02:48:28.053Z,27.30
2018-08-02T02:50:54.895Z,27.30
2018-08-02T02:53:21.699Z,27.30
2018-08-02T02:55:48.542Z,27.30
2018-08-02T02:58:15.413Z,27.30
2018-08-02T03:00:42.259Z,27.30
2018-08-02T03:03:09.091Z,27.30
2018-08-02T03:05:35.935Z,27.30
2018-08-02T03:08:02.789Z,27.30
2018-08-02T03:10:29.634Z,27.30
2018-08-02T03:12:56.526Z,27.30
2018-08-02T03:15:23.299Z,27.30
2018-08-02T03:17:50.160Z,27.30
2018-08-02T03:20:17.014Z,27.30
2018-08-02T03:22:43.846Z,27.30
2018-08-02T03:25:10.650Z,27.30
2018-08-02T03:27:37.646Z,27.30
2018-08-02T03:30:04.468Z,27.30
2018-08-02T03:32:31.284Z,27.30
2018-08-02T03:34:58.119Z,27.30
2018-08-02T03:37:25.095Z,27.30
2018-08-02T03:39:51.922Z,27.30
2018-08-02T03:42:18.745Z,27.30
2018-08-02T03:44:45.570Z,27.30
2018-08-02T03:47:13.102Z,27.30
2018-08-02T03:49:40.100Z,27.20
2018-08-02T03:52:06.931Z,27.30
2018-08-02T03:54:33.814Z,27.30
2018-08-02T03:57:00.663Z,27.30
2018-08-02T03:59:27.493Z,27.30
2018-08-02T04:01:54.335Z,27.30
2018-08-02T04:04:21.167Z,27.30
2018-08-02T04:06:47.973Z,27.30
2018-08-02T04:09:14.797Z,27.30
2018-08-02T04:11:41.617Z,27.20
2018-08-02T04:14:08.453Z,27.30
2018-08-02T04:16:35.303Z,27.20
2018-08-02T04:19:02.134Z,27.30
2018-08-02T04:21:29.192Z,27.20
2018-08-02T04:23:56.388Z,27.30
2018-08-02T04:26:23.369Z,27.20
2018-08-02T04:28:50.989Z,27.30
2018-08-02T04:31:18.308Z,27.30
2018-08-02T04:42:00.314Z,27.20
2018-08-02T04:44:27.263Z,27.20
2018-08-02T04:46:54.383Z,27.20
2018-08-02T04:51:52.032Z,27.20
2018-08-02T04:54:18.975Z,27.20
2018-08-02T04:56:45.886Z,27.20
2018-08-02T04:59:12.824Z,27.20
2018-08-02T05:01:39.733Z,27.20
2018-08-02T05:04:07.754Z,27.20
2018-08-02T05:06:38.035Z,27.20
2018-08-02T05:09:05.785Z,27.20
2018-08-02T05:11:32.770Z,27.20
2018-08-02T05:13:59.793Z,27.20
2018-08-02T05:16:26.802Z,27.20
2018-08-02T05:18:54.426Z,27.20
2018-08-02T05:21:21.345Z,27.20
2018-08-02T05:23:48.215Z,27.20
2018-08-02T05:26:15.490Z,27.20
2018-08-02T05:28:42.476Z,27.20
2018-08-02T05:31:09.331Z,27.20
2018-08-02T05:33:36.208Z,26.80
2018-08-02T05:36:03.320Z,26.30
2018-08-02T05:38:30.055Z,26.00
2018-08-02T05:40:56.945Z,25.70
2018-08-02T05:43:23.811Z,25.40
2018-08-02T05:45:50.667Z,25.20
2018-08-02T05:48:17.666Z,25.10
2018-08-02T05:50:44.471Z,25.00
2018-08-02T05:53:11.567Z,24.90
2018-08-02T05:55:38.593Z,24.90
2018-08-02T05:58:05.769Z,24.80
2018-08-02T06:00:32.902Z,24.70
2018-08-02T06:02:59.910Z,24.60
2018-08-02T06:05:26.811Z,24.70
2018-08-02T06:07:54.826Z,24.60
2018-08-02T06:10:21.696Z,24.50
2018-08-02T06:12:48.523Z,24.50
2018-08-02T06:15:15.356Z,24.50
2018-08-02T06:17:42.440Z,24.50
2018-08-02T06:20:09.305Z,24.50
2018-08-02T06:22:36.163Z,24.50
2018-08-02T06:25:02.981Z,24.40
2018-08-02T06:27:29.964Z,24.30
2018-08-02T06:29:56.856Z,24.30
2018-08-02T06:32:23.648Z,24.30
2018-08-02T06:34:50.522Z,24.40
2018-08-02T06:37:17.537Z,24.70
2018-08-02T06:39:44.395Z,25.10
2018-08-02T06:42:11.214Z,25.30
2018-08-02T06:44:38.051Z,25.60
2018-08-02T06:47:04.910Z,25.60
2018-08-02T06:49:31.742Z,25.70
2018-08-02T06:51:58.579Z,25.70
2018-08-02T06:54:25.435Z,25.80
2018-08-02T06:56:52.314Z,25.80
2018-08-02T06:59:19.151Z,25.90
2018-08-02T07:01:45.975Z,26.00
2018-08-02T07:04:12.816Z,25.80
2018-08-02T07:06:39.654Z,25.80
2018-08-02T07:09:06.554Z,25.80
2018-08-02T07:11:33.475Z,25.90
2018-08-02T07:14:00.321Z,26.00
2018-08-02T07:16:27.237Z,25.90
2018-08-02T07:18:54.231Z,25.90
2018-08-02T07:21:21.082Z,25.90
2018-08-02T07:23:47.972Z,25.90
2018-08-02T07:26:14.847Z,25.90
2018-08-02T07:28:41.926Z,25.70
2018-08-02T07:31:08.771Z,25.50
2018-08-02T07:33:35.914Z,25.50
2018-08-02T07:36:02.735Z,25.50
2018-08-02T07:38:29.638Z,25.20
2018-08-02T07:40:56.525Z,25.50
2018-08-02T07:43:23.455Z,25.60
2018-08-02T07:45:50.285Z,25.80
2018-08-02T07:48:17.205Z,25.80
2018-08-02T07:50:44.035Z,25.90
2018-08-02T07:53:10.932Z,25.90
2018-08-02T07:55:37.743Z,25.90
2018-08-02T07:58:04.835Z,26.00
2018-08-02T08:00:31.890Z,26.00
2018-08-02T08:02:58.757Z,26.00
2018-08-02T08:05:25.621Z,26.00
2018-08-02T08:07:52.612Z,26.00
2018-08-02T08:10:19.468Z,26.00
2018-08-02T08:12:46.393Z,26.00
2018-08-02T08:17:40.762Z,26.10
2018-08-02T08:20:07.618Z,26.20
2018-08-02T08:22:34.738Z,26.30
2018-08-02T08:27:29.009Z,26.40
2018-08-02T08:29:55.853Z,26.50
2018-08-02T08:32:23.336Z,26.50
2018-08-02T08:34:50.176Z,26.50
2018-08-02T08:37:23.631Z,26.60
2018-08-02T08:39:44.191Z,26.60
2018-08-02T08:42:11.161Z,26.60
2018-08-02T08:44:38.728Z,26.60
2018-08-02T08:47:05.832Z,26.60
2018-08-02T08:49:32.842Z,26.60
2018-08-02T08:51:59.684Z,26.60
2018-08-02T08:54:26.520Z,26.60
2018-08-02T08:56:53.735Z,26.60
2018-08-02T08:59:20.742Z,26.60
2018-08-02T09:01:47.649Z,26.60
2018-08-02T09:09:19.613Z,26.50
2018-08-02T09:11:46.480Z,26.60
2018-08-02T09:14:13.488Z,26.60
2018-08-02T09:16:41.173Z,26.60
2018-08-02T09:23:11.790Z,26.70
2018-08-02T09:25:38.703Z,26.80
2018-08-02T09:28:05.880Z,26.80
2018-08-02T09:33:11.333Z,26.80
2018-08-02T09:35:43.876Z,26.80
2018-08-02T09:38:10.928Z,26.80
2018-08-02T09:43:19.085Z,26.70
2018-08-02T09:45:46.108Z,26.80
2018-08-02T09:48:13.062Z,26.80
2018-08-02T09:50:39.901Z,26.80
2018-08-02T09:53:06.948Z,26.80
2018-08-02T09:55:33.934Z,26.90
2018-08-02T09:58:01.079Z,26.90
2018-08-02T10:00:28.863Z,26.90
2018-08-02T10:02:55.859Z,26.90
2018-08-02T10:05:22.803Z,26.90
2018-08-02T10:07:49.803Z,26.90
2018-08-02T10:10:16.792Z,27.00
2018-08-02T10:12:43.692Z,27.00
2018-08-02T10:15:14.597Z,27.00
2018-08-02T10:17:41.678Z,26.90
2018-08-02T10:20:08.879Z,27.00
2018-08-02T10:22:35.775Z,27.00
2018-08-02T10:25:02.713Z,27.00
2018-08-02T10:27:29.639Z,27.00
2018-08-02T10:29:57.319Z,27.00
2018-08-02T10:32:25.687Z,27.00
2018-08-02T10:34:53.626Z,27.10
2018-08-02T10:37:20.774Z,27.10
2018-08-02T10:39:47.665Z,27.10
2018-08-02T10:42:14.642Z,27.10
2018-08-02T10:44:41.610Z,27.10
2018-08-02T10:47:08.710Z,27.10
2018-08-02T10:49:35.566Z,27.20
2018-08-02T10:52:02.476Z,27.20
2018-08-02T10:54:29.459Z,27.20
2018-08-02T10:56:56.529Z,27.20
2018-08-02T11:06:53.899Z,27.20
2018-08-02T11:09:20.907Z,27.20
2018-08-02T11:11:47.886Z,27.30
2018-08-02T11:14:14.990Z,27.30
2018-08-02T11:16:50.776Z,27.30
2018-08-02T11:19:17.644Z,27.30
2018-08-02T11:21:44.677Z,27.30
2018-08-02T11:24:12.245Z,27.30
2018-08-02T11:26:39.959Z,27.30
2018-08-02T11:29:07.110Z,27.30
2018-08-02T11:31:33.973Z,27.30
2018-08-02T11:34:01.232Z,27.30
2018-08-02T11:36:28.249Z,27.30
2018-08-02T11:38:55.194Z,27.30
2018-08-02T11:41:22.024Z,27.40
2018-08-02T11:43:48.941Z,27.40
2018-08-02T11:46:15.822Z,27.30
2018-08-02T11:48:43.100Z,27.30
2018-08-02T11:51:10.067Z,27.40
2018-08-02T11:53:37.103Z,27.40
2018-08-02T11:56:04.149Z,27.30
2018-08-02T11:58:31.184Z,27.30
2018-08-02T12:00:58.252Z,27.30
2018-08-02T12:03:25.116Z,27.30
2018-08-02T12:05:52.064Z,27.30
2018-08-02T12:08:19.269Z,27.30
2018-08-02T12:10:46.118Z,27.30
2018-08-02T12:13:13.009Z,27.30
2018-08-02T12:15:39.844Z,27.40
2018-08-02T12:18:06.948Z,27.30
2018-08-02T12:20:33.883Z,27.40
2018-08-02T12:23:00.749Z,27.30
2018-08-02T12:25:27.920Z,27.30
2018-08-02T12:30:33.456Z,27.30
2018-08-02T12:33:00.418Z,27.30
2018-08-02T12:35:27.368Z,27.30
2018-08-02T12:37:54.387Z,27.30
2018-08-02T12:40:21.462Z,27.30
2018-08-02T12:45:26.787Z,27.30
2018-08-02T12:47:53.921Z,27.40
2018-08-02T12:50:21.048Z,27.40
2018-08-02T12:52:48.188Z,27.40
2018-08-02T12:55:14.982Z,27.40
2018-08-02T13:00:18.251Z,27.40
2018-08-02T13:02:45.469Z,27.40
2018-08-02T13:05:12.501Z,27.40
2018-08-02T13:07:40.046Z,27.40
2018-08-02T13:12:34.151Z,27.40
2018-08-02T13:15:01.345Z,27.40
2018-08-02T13:17:28.579Z,27.50
2018-08-02T13:19:55.560Z,27.40
2018-08-02T13:22:22.467Z,27.40
2018-08-02T13:24:49.467Z,27.40
2018-08-02T13:27:16.565Z,27.40
2018-08-02T13:29:43.484Z,27.40
2018-08-02T13:32:10.288Z,27.40
2018-08-02T13:43:30.375Z,27.40
2018-08-02T13:45:57.224Z,27.40
2018-08-02T13:48:24.387Z,27.40
2018-08-02T13:50:51.294Z,27.40
2018-08-02T13:53:18.216Z,27.40
2018-08-02T13:58:22.159Z,27.30
2018-08-02T14:00:49.292Z,27.40
2018-08-02T14:03:31.211Z,27.40
2018-08-02T14:05:58.939Z,27.30
2018-08-02T14:08:26.395Z,27.40
2018-08-02T14:13:31.588Z,27.40
2018-08-02T14:15:58.470Z,27.40
2018-08-02T14:18:25.708Z,27.40
2018-08-02T14:20:52.860Z,27.40
2018-08-02T14:26:36.972Z,27.40
2018-08-02T14:29:03.809Z,27.50
2018-08-02T14:31:30.893Z,27.50
2018-08-02T14:33:57.939Z,27.50
2018-08-02T14:36:24.926Z,27.50
2018-08-02T14:38:51.907Z,27.50
2018-08-02T14:41:18.927Z,27.50
2018-08-02T14:43:45.828Z,27.50
2018-08-02T14:46:12.769Z,27.50
2018-08-02T14:48:39.930Z,27.50
2018-08-02T14:51:06.808Z,27.50
2018-08-02T14:53:33.910Z,27.40
2018-08-02T14:56:01.060Z,27.50
2018-08-02T14:58:28.060Z,27.50
2018-08-02T15:00:55.365Z,27.50
2018-08-02T15:03:23.682Z,27.50
2018-08-02T15:05:51.549Z,27.50
2018-08-02T15:08:18.976Z,27.50
2018-08-02T15:10:50.899Z,27.50
2018-08-02T15:13:18.017Z,27.50
2018-08-02T15:15:44.880Z,27.50
2018-08-02T15:18:12.201Z,27.50
2018-08-02T15:23:16.893Z,27.50
2018-08-02T15:25:58.553Z,27.50
2018-08-02T15:28:25.756Z,27.50
2018-08-02T15:30:53.360Z,27.50
2018-08-02T15:33:20.279Z,27.50
2018-08-02T15:35:47.340Z,27.50
2018-08-02T15:38:18.566Z,27.50
2018-08-02T15:40:45.525Z,27.50
2018-08-02T15:43:20.099Z,27.50
2018-08-02T15:45:46.959Z,27.50
2018-08-02T15:48:13.957Z,27.50
2018-08-02T15:50:41.848Z,27.50
2018-08-02T15:55:49.400Z,27.50
2018-08-02T16:03:40.575Z,27.50
2018-08-02T16:06:08.017Z,27.50
2018-08-02T16:08:35.127Z,27.50
2018-08-02T16:11:08.295Z,27.50
2018-08-02T16:21:50.832Z,27.50
2018-08-02T16:24:17.686Z,27.50
2018-08-02T16:26:44.801Z,27.50
2018-08-02T16:29:11.692Z,27.50
2018-08-02T16:31:38.576Z,27.50
2018-08-02T16:38:08.661Z,27.50
2018-08-02T16:52:13.711Z,27.50
2018-08-02T16:54:40.670Z,27.50
2018-08-02T16:58:11.373Z,27.50
2018-08-02T17:00:38.199Z,27.50
2018-08-02T17:03:07.261Z,27.50
2018-08-02T17:11:34.327Z,27.50
2018-08-02T17:14:01.932Z,27.50
2018-08-02T17:19:48.946Z,27.50
2018-08-02T17:22:16.252Z,27.50
2018-08-02T17:32:39.199Z,27.50
2018-08-02T17:35:06.819Z,27.50
2018-08-02T17:37:33.953Z,27.50
2018-08-02T17:40:07.291Z,27.50
2018-08-02T17:45:19.188Z,27.50
2018-08-02T17:47:47.956Z,27.50
2018-08-02T17:50:15.492Z,27.50
2018-08-02T17:52:42.627Z,27.50
2018-08-02T17:55:09.572Z,27.50
2018-08-02T18:00:14.563Z,27.50
2018-08-02T18:02:42.163Z,27.50
2018-08-02T18:05:19.931Z,27.50
2018-08-02T18:19:23.636Z,27.50
2018-08-02T18:21:50.630Z,27.50
2018-08-02T18:24:17.597Z,27.50
2018-08-02T18:26:44.641Z,27.50
2018-08-02T18:31:57.232Z,27.50
2018-08-02T18:34:24.181Z,27.50
2018-08-02T18:36:53.172Z,27.50
2018-08-02T18:39:20.289Z,27.50
2018-08-02T18:42:07.338Z,27.50
2018-08-02T18:44:39.438Z,27.50
2018-08-02T18:47:07.077Z,27.50
2018-08-02T18:49:33.978Z,27.50
2018-08-02T18:52:00.998Z,27.40
2018-08-02T18:54:28.001Z,27.50
2018-08-02T19:01:02.993Z,27.50
2018-08-02T19:03:30.033Z,27.50
2018-08-02T19:05:57.177Z,27.50
2018-08-02T19:08:24.343Z,27.50
2018-08-02T19:10:51.331Z,27.40
2018-08-02T19:13:18.428Z,27.40
2018-08-02T19:15:45.621Z,27.40
2018-08-02T19:18:12.711Z,27.40
2018-08-02T19:23:07.064Z,27.40
2018-08-02T19:25:34.206Z,27.40
2018-08-02T19:28:01.397Z,27.50
2018-08-02T19:30:28.332Z,27.50
2018-08-02T19:32:55.261Z,27.50
2018-08-02T19:35:22.139Z,27.50
2018-08-02T19:37:51.676Z,27.50
2018-08-02T19:40:26.461Z,27.50
2018-08-02T19:43:02.951Z,27.50
2018-08-02T19:45:43.682Z,27.50
2018-08-02T19:48:16.298Z,27.50
2018-08-02T19:50:54.263Z,27.60
2018-08-02T19:53:32.179Z,27.60
2018-08-02T19:56:14.688Z,27.60
2018-08-02T19:58:47.029Z,27.60
2018-08-02T20:06:37.923Z,27.70
2018-08-02T20:14:40.293Z,27.70
2018-08-02T20:17:07.392Z,27.70
2018-08-02T20:19:34.347Z,27.70
2018-08-02T20:22:01.521Z,27.70
2018-08-02T20:24:28.268Z,27.70
2018-08-02T20:27:02.676Z,27.70
2018-08-02T20:35:02.297Z,27.70
2018-08-02T20:37:29.335Z,27.70
2018-08-02T20:39:57.230Z,27.70
2018-08-02T20:42:24.145Z,27.70
2018-08-02T20:44:51.157Z,27.70
2018-08-02T20:47:18.834Z,27.70
2018-08-02T20:49:45.745Z,27.70
2018-08-02T20:52:12.625Z,27.70
2018-08-02T20:54:39.543Z,27.70
2018-08-02T20:57:06.567Z,27.70
2018-08-02T20:59:33.472Z,27.70
2018-08-02T21:02:00.353Z,27.70
2018-08-02T21:04:27.318Z,27.70
2018-08-02T21:06:54.450Z,27.70
2018-08-02T21:09:21.519Z,27.70
2018-08-02T21:11:48.407Z,27.70
2018-08-02T21:14:15.353Z,27.70
2018-08-02T21:19:09.921Z,27.70
2018-08-02T21:21:43.306Z,27.70
2018-08-02T21:24:10.241Z,27.70
2018-08-02T21:32:14.792Z,27.60
2018-08-02T21:37:34.078Z,27.60
2018-08-02T21:48:05.376Z,27.60
2018-08-02T21:50:32.325Z,27.60
2018-08-02T21:52:59.160Z,27.60
2018-08-02T21:55:25.990Z,27.60
2018-08-02T21:57:53.028Z,27.60
2018-08-02T22:00:19.974Z,27.60
2018-08-02T22:02:46.886Z,27.50
2018-08-02T22:05:13.709Z,27.50
2018-08-02T22:07:40.607Z,27.50
2018-08-02T22:10:20.341Z,27.50
2018-08-02T22:13:04.551Z,27.50
2018-08-02T22:20:50.572Z,27.50
2018-08-02T22:23:29.753Z,27.50
2018-08-02T22:26:02.454Z,27.50
2018-08-02T22:28:39.766Z,27.50
2018-08-02T22:31:26.911Z,27.50
2018-08-02T22:34:02.186Z,27.50
2018-08-02T22:36:28.990Z,27.50
2018-08-02T22:38:55.977Z,27.50
2018-08-02T22:41:22.828Z,27.50
2018-08-02T22:46:18.852Z,27.50
2018-08-02T22:48:45.735Z,27.50
2018-08-02T22:51:12.729Z,27.50
2018-08-02T22:53:41.520Z,27.50
2018-08-02T22:56:08.381Z,27.50
2018-08-02T22:58:35.552Z,27.50
2018-08-02T23:01:02.576Z,27.50
2018-08-02T23:03:29.570Z,27.50
2018-08-02T23:05:56.571Z,27.40
2018-08-02T23:08:27.714Z,27.50
2018-08-02T23:10:54.576Z,27.40
2018-08-02T23:13:21.583Z,27.50
2018-08-02T23:18:26.443Z,27.40
2018-08-02T23:20:53.499Z,27.40
2018-08-02T23:25:47.855Z,27.40
2018-08-02T23:28:20.365Z,27.40
2018-08-02T23:30:47.414Z,27.40
2018-08-02T23:33:14.378Z,27.40
2018-08-02T23:35:41.272Z,27.40
2018-08-02T23:38:08.356Z,27.40
2018-08-02T23:40:38.688Z,27.40
2018-08-02T23:43:16.499Z,27.40
2018-08-02T23:45:43.393Z,27.40
2018-08-02T23:48:10.565Z,27.40
2018-08-02T23:50:38.416Z,27.40
2018-08-02T23:53:05.461Z,27.40
2018-08-02T23:55:32.404Z,27.30
2018-08-02T23:57:59.804Z,27.40
